Main page
METAR-TAF:

METAR-TAF

Airports :

Rarotonga International Airport

Rarotonga, Cook Islands

latitude: 21-12S, longitude: 159-49W, elevation: 7 m

Current weather observation

The report was made 35 minutes ago, at 04:00 UTC
Wind 3 kt from the West/Northwest
Temperature 24°C
Humidity 69%
Pressure 1013 hPa
Visibility 10 km or more
Broken clouds at a height of 2300 ft

METAR: NCRG 160400Z 29003KT 9999 BKN023 24/18 Q1013

Time: 18:35 (04:35 UTC)

Forecast

The report was made 5 hours and 34 minutes ago, at 23:01 UTC
Forecast valid from 16 at 00 UTC to 16 at 24 UTC
Wind 7 kt from the South/Southeast
Visibility 10 km or more
Scattered clouds at a height of 1800 ft

TAF: NCRG 152301Z 1600/1624 16007KT 9999 SCT018

Weather observations and forecasts of more than 4000 airports (METAR and TAF reports).

The available stations are represented by yellow and red dots on the map.

Hover mouse over dot to see the name of the station.

Then click to see weather observations and forecasts.

To change the map : click on the green buttons with a black cross to zoom in, on the green button with a dash to zoom out, or on the green arrows for adjacent maps.


METAR-TAF: